sensor_id;sensor_type;location;lat;lon;timestamp;P1;durP1;ratioP1;P2;durP2;ratioP2
47429;SDS011;33181;49.246;7.372;2022-07-29T00:00:06;5.80;;;4.83;;
47429;SDS011;33181;49.246;7.372;2022-07-29T00:02:34;5.20;;;4.70;;
47429;SDS011;33181;49.246;7.372;2022-07-29T00:05:00;6.30;;;5.20;;
47429;SDS011;33181;49.246;7.372;2022-07-29T00:07:26;5.63;;;5.13;;
47429;SDS011;33181;49.246;7.372;2022-07-29T00:09:52;6.20;;;4.70;;
47429;SDS011;33181;49.246;7.372;2022-07-29T00:12:22;5.70;;;4.90;;
47429;SDS011;33181;49.246;7.372;2022-07-29T00:14:49;7.03;;;5.47;;
47429;SDS011;33181;49.246;7.372;2022-07-29T00:17:15;5.63;;;5.03;;
47429;SDS011;33181;49.246;7.372;2022-07-29T00:19:41;6.50;;;5.00;;
47429;SDS011;33181;49.246;7.372;2022-07-29T00:22:07;5.33;;;4.83;;
47429;SDS011;33181;49.246;7.372;2022-07-29T00:24:33;5.80;;;5.17;;
47429;SDS011;33181;49.246;7.372;2022-07-29T00:26:58;5.13;;;4.70;;
47429;SDS011;33181;49.246;7.372;2022-07-29T00:29:24;5.97;;;4.77;;
47429;SDS011;33181;49.246;7.372;2022-07-29T00:31:50;5.60;;;4.93;;
47429;SDS011;33181;49.246;7.372;2022-07-29T00:34:16;5.83;;;5.23;;
47429;SDS011;33181;49.246;7.372;2022-07-29T00:37:00;5.83;;;5.23;;
47429;SDS011;33181;49.246;7.372;2022-07-29T00:39:26;5.70;;;5.10;;
47429;SDS011;33181;49.246;7.372;2022-07-29T00:41:52;6.93;;;5.30;;
47429;SDS011;33181;49.246;7.372;2022-07-29T00:44:18;6.97;;;5.37;;
47429;SDS011;33181;49.246;7.372;2022-07-29T00:46:44;6.03;;;5.40;;
47429;SDS011;33181;49.246;7.372;2022-07-29T00:49:10;6.50;;;5.90;;
47429;SDS011;33181;49.246;7.372;2022-07-29T00:51:36;7.13;;;5.40;;
47429;SDS011;33181;49.246;7.372;2022-07-29T00:54:03;7.67;;;5.30;;
47429;SDS011;33181;49.246;7.372;2022-07-29T00:56:30;6.83;;;5.77;;
47429;SDS011;33181;49.246;7.372;2022-07-29T00:58:57;7.03;;;5.70;;
47429;SDS011;33181;49.246;7.372;2022-07-29T01:01:25;6.13;;;5.53;;
47429;SDS011;33181;49.246;7.372;2022-07-29T01:03:51;6.40;;;5.63;;
47429;SDS011;33181;49.246;7.372;2022-07-29T01:06:17;6.10;;;5.50;;
47429;SDS011;33181;49.246;7.372;2022-07-29T01:08:44;8.47;;;5.50;;
47429;SDS011;33181;49.246;7.372;2022-07-29T01:11:12;7.77;;;5.73;;
47429;SDS011;33181;49.246;7.372;2022-07-29T01:13:39;7.93;;;5.17;;
47429;SDS011;33181;49.246;7.372;2022-07-29T01:16:13;7.13;;;5.53;;
47429;SDS011;33181;49.246;7.372;2022-07-29T01:18:50;5.50;;;5.00;;
47429;SDS011;33181;49.246;7.372;2022-07-29T01:21:35;6.17;;;5.57;;
47429;SDS011;33181;49.246;7.372;2022-07-29T01:27:20;6.43;;;5.80;;
47429;SDS011;33181;49.246;7.372;2022-07-29T01:30:04;6.40;;;5.50;;
47429;SDS011;33181;49.246;7.372;2022-07-29T01:32:33;6.77;;;6.17;;
47429;SDS011;33181;49.246;7.372;2022-07-29T01:38:12;7.53;;;6.00;;
47429;SDS011;33181;49.246;7.372;2022-07-29T01:40:46;6.23;;;5.60;;
47429;SDS011;33181;49.246;7.372;2022-07-29T01:43:31;7.97;;;6.20;;
47429;SDS011;33181;49.246;7.372;2022-07-29T01:46:13;8.00;;;6.80;;
47429;SDS011;33181;49.246;7.372;2022-07-29T01:51:31;8.13;;;6.47;;
47429;SDS011;33181;49.246;7.372;2022-07-29T01:57:04;7.63;;;6.73;;
47429;SDS011;33181;49.246;7.372;2022-07-29T01:59:33;10.03;;;6.67;;
47429;SDS011;33181;49.246;7.372;2022-07-29T02:02:02;7.33;;;6.60;;
47429;SDS011;33181;49.246;7.372;2022-07-29T02:04:29;8.20;;;6.30;;
47429;SDS011;33181;49.246;7.372;2022-07-29T02:07:00;8.60;;;6.67;;
47429;SDS011;33181;49.246;7.372;2022-07-29T02:09:30;6.90;;;6.20;;
47429;SDS011;33181;49.246;7.372;2022-07-29T02:12:00;11.00;;;7.13;;
47429;SDS011;33181;49.246;7.372;2022-07-29T02:14:28;7.43;;;5.57;;
47429;SDS011;33181;49.246;7.372;2022-07-29T02:16:59;7.43;;;6.33;;
47429;SDS011;33181;49.246;7.372;2022-07-29T02:19:26;6.83;;;6.23;;
47429;SDS011;33181;49.246;7.372;2022-07-29T02:21:54;7.20;;;6.50;;
47429;SDS011;33181;49.246;7.372;2022-07-29T02:24:23;7.23;;;6.07;;
47429;SDS011;33181;49.246;7.372;2022-07-29T02:26:51;7.97;;;6.33;;
47429;SDS011;33181;49.246;7.372;2022-07-29T02:29:21;9.50;;;7.60;;
47429;SDS011;33181;49.246;7.372;2022-07-29T02:31:50;8.20;;;6.93;;
47429;SDS011;33181;49.246;7.372;2022-07-29T02:34:18;8.93;;;7.10;;
47429;SDS011;33181;49.246;7.372;2022-07-29T02:36:45;7.10;;;6.40;;
47429;SDS011;33181;49.246;7.372;2022-07-29T02:39:13;8.40;;;7.07;;
47429;SDS011;33181;49.246;7.372;2022-07-29T02:41:43;8.50;;;7.10;;
47429;SDS011;33181;49.246;7.372;2022-07-29T02:44:21;7.90;;;7.10;;
47429;SDS011;33181;49.246;7.372;2022-07-29T02:46:53;8.47;;;7.10;;
47429;SDS011;33181;49.246;7.372;2022-07-29T02:54:53;7.70;;;6.73;;
47429;SDS011;33181;49.246;7.372;2022-07-29T02:57:32;8.50;;;7.10;;
47429;SDS011;33181;49.246;7.372;2022-07-29T03:00:09;7.97;;;7.10;;
47429;SDS011;33181;49.246;7.372;2022-07-29T03:02:38;7.17;;;6.53;;
47429;SDS011;33181;49.246;7.372;2022-07-29T03:05:09;7.10;;;6.40;;
47429;SDS011;33181;49.246;7.372;2022-07-29T03:07:40;7.60;;;6.77;;
47429;SDS011;33181;49.246;7.372;2022-07-29T03:10:08;7.73;;;6.93;;
47429;SDS011;33181;49.246;7.372;2022-07-29T03:12:35;10.43;;;6.73;;
47429;SDS011;33181;49.246;7.372;2022-07-29T03:15:02;7.30;;;6.60;;
47429;SDS011;33181;49.246;7.372;2022-07-29T03:17:28;7.07;;;6.37;;
47429;SDS011;33181;49.246;7.372;2022-07-29T03:19:56;7.27;;;6.30;;
47429;SDS011;33181;49.246;7.372;2022-07-29T03:22:23;8.53;;;6.60;;
47429;SDS011;33181;49.246;7.372;2022-07-29T03:24:50;8.50;;;6.93;;
47429;SDS011;33181;49.246;7.372;2022-07-29T03:27:15;11.27;;;7.10;;
47429;SDS011;33181;49.246;7.372;2022-07-29T03:29:41;7.23;;;6.50;;
47429;SDS011;33181;49.246;7.372;2022-07-29T03:32:07;7.13;;;6.43;;
47429;SDS011;33181;49.246;7.372;2022-07-29T03:34:33;8.13;;;6.73;;
47429;SDS011;33181;49.246;7.372;2022-07-29T03:36:59;7.20;;;6.50;;
47429;SDS011;33181;49.246;7.372;2022-07-29T03:39:25;9.23;;;6.70;;
47429;SDS011;33181;49.246;7.372;2022-07-29T03:41:56;7.47;;;6.77;;
47429;SDS011;33181;49.246;7.372;2022-07-29T03:44:25;9.20;;;7.80;;
47429;SDS011;33181;49.246;7.372;2022-07-29T03:46:53;7.37;;;6.67;;
47429;SDS011;33181;49.246;7.372;2022-07-29T03:49:20;7.57;;;6.87;;
47429;SDS011;33181;49.246;7.372;2022-07-29T03:51:48;7.37;;;6.60;;
47429;SDS011;33181;49.246;7.372;2022-07-29T03:54:14;7.73;;;6.90;;
47429;SDS011;33181;49.246;7.372;2022-07-29T03:56:42;13.60;;;7.50;;
47429;SDS011;33181;49.246;7.372;2022-07-29T03:59:12;9.70;;;8.00;;
47429;SDS011;33181;49.246;7.372;2022-07-29T04:01:41;7.70;;;7.00;;
47429;SDS011;33181;49.246;7.372;2022-07-29T04:04:08;7.70;;;6.90;;
47429;SDS011;33181;49.246;7.372;2022-07-29T04:06:38;8.33;;;7.40;;
47429;SDS011;33181;49.246;7.372;2022-07-29T04:09:06;10.17;;;7.50;;
47429;SDS011;33181;49.246;7.372;2022-07-29T04:11:32;7.80;;;7.00;;
47429;SDS011;33181;49.246;7.372;2022-07-29T04:13:59;8.53;;;6.87;;
47429;SDS011;33181;49.246;7.372;2022-07-29T04:16:24;9.47;;;7.17;;
47429;SDS011;33181;49.246;7.372;2022-07-29T04:18:50;8.00;;;7.20;;
47429;SDS011;33181;49.246;7.372;2022-07-29T04:21:16;8.60;;;7.10;;
47429;SDS011;33181;49.246;7.372;2022-07-29T04:23:42;10.60;;;7.73;;
47429;SDS011;33181;49.246;7.372;2022-07-29T04:26:10;7.03;;;6.33;;
47429;SDS011;33181;49.246;7.372;2022-07-29T04:28:36;8.77;;;6.90;;
47429;SDS011;33181;49.246;7.372;2022-07-29T04:31:04;7.33;;;6.63;;
47429;SDS011;33181;49.246;7.372;2022-07-29T04:33:30;8.43;;;7.10;;
47429;SDS011;33181;49.246;7.372;2022-07-29T04:35:55;7.57;;;6.80;;
47429;SDS011;33181;49.246;7.372;2022-07-29T04:38:21;10.63;;;7.40;;
47429;SDS011;33181;49.246;7.372;2022-07-29T04:40:47;8.40;;;7.13;;
47429;SDS011;33181;49.246;7.372;2022-07-29T04:43:13;7.10;;;6.40;;
47429;SDS011;33181;49.246;7.372;2022-07-29T04:45:40;8.70;;;6.40;;
47429;SDS011;33181;49.246;7.372;2022-07-29T04:48:06;7.40;;;5.90;;
47429;SDS011;33181;49.246;7.372;2022-07-29T04:50:32;6.93;;;6.07;;
47429;SDS011;33181;49.246;7.372;2022-07-29T04:52:57;7.10;;;6.40;;
47429;SDS011;33181;49.246;7.372;2022-07-29T04:55:23;6.87;;;6.10;;
47429;SDS011;33181;49.246;7.372;2022-07-29T04:57:50;6.53;;;5.60;;
47429;SDS011;33181;49.246;7.372;2022-07-29T05:00:16;10.10;;;5.80;;
47429;SDS011;33181;49.246;7.372;2022-07-29T05:02:42;7.60;;;6.03;;
47429;SDS011;33181;49.246;7.372;2022-07-29T05:05:08;7.80;;;5.50;;
47429;SDS011;33181;49.246;7.372;2022-07-29T05:07:34;8.33;;;5.83;;
47429;SDS011;33181;49.246;7.372;2022-07-29T05:09:59;9.70;;;6.10;;
47429;SDS011;33181;49.246;7.372;2022-07-29T05:12:25;9.97;;;6.50;;
47429;SDS011;33181;49.246;7.372;2022-07-29T05:14:51;7.50;;;6.67;;
47429;SDS011;33181;49.246;7.372;2022-07-29T05:17:18;6.50;;;5.80;;
47429;SDS011;33181;49.246;7.372;2022-07-29T05:19:44;7.67;;;6.57;;
47429;SDS011;33181;49.246;7.372;2022-07-29T05:22:10;7.70;;;6.17;;
47429;SDS011;33181;49.246;7.372;2022-07-29T05:24:35;7.43;;;6.23;;
47429;SDS011;33181;49.246;7.372;2022-07-29T05:27:01;9.43;;;6.13;;
47429;SDS011;33181;49.246;7.372;2022-07-29T05:29:27;7.33;;;6.63;;
47429;SDS011;33181;49.246;7.372;2022-07-29T05:31:52;7.33;;;6.63;;
47429;SDS011;33181;49.246;7.372;2022-07-29T05:34:19;9.23;;;6.20;;
47429;SDS011;33181;49.246;7.372;2022-07-29T05:36:45;6.80;;;5.90;;
47429;SDS011;33181;49.246;7.372;2022-07-29T05:39:11;7.00;;;5.90;;
47429;SDS011;33181;49.246;7.372;2022-07-29T05:41:37;7.20;;;6.20;;
47429;SDS011;33181;49.246;7.372;2022-07-29T05:44:03;9.43;;;6.57;;
47429;SDS011;33181;49.246;7.372;2022-07-29T05:46:29;12.77;;;6.13;;
47429;SDS011;33181;49.246;7.372;2022-07-29T05:48:55;6.73;;;5.83;;
47429;SDS011;33181;49.246;7.372;2022-07-29T05:51:21;10.73;;;6.00;;
47429;SDS011;33181;49.246;7.372;2022-07-29T05:53:47;6.90;;;6.20;;
47429;SDS011;33181;49.246;7.372;2022-07-29T05:56:13;9.70;;;5.87;;
47429;SDS011;33181;49.246;7.372;2022-07-29T05:58:38;8.23;;;6.20;;
47429;SDS011;33181;49.246;7.372;2022-07-29T06:01:04;6.53;;;5.83;;
47429;SDS011;33181;49.246;7.372;2022-07-29T06:03:30;7.20;;;6.27;;
47429;SDS011;33181;49.246;7.372;2022-07-29T06:05:56;7.67;;;6.73;;
47429;SDS011;33181;49.246;7.372;2022-07-29T06:08:22;7.13;;;6.43;;
47429;SDS011;33181;49.246;7.372;2022-07-29T06:10:48;10.57;;;7.03;;
47429;SDS011;33181;49.246;7.372;2022-07-29T06:13:13;9.07;;;7.60;;
47429;SDS011;33181;49.246;7.372;2022-07-29T06:15:40;9.43;;;6.70;;
47429;SDS011;33181;49.246;7.372;2022-07-29T06:18:07;7.30;;;6.50;;
47429;SDS011;33181;49.246;7.372;2022-07-29T06:20:35;10.13;;;7.60;;
47429;SDS011;33181;49.246;7.372;2022-07-29T06:23:01;7.80;;;6.20;;
47429;SDS011;33181;49.246;7.372;2022-07-29T06:25:29;7.10;;;6.40;;
47429;SDS011;33181;49.246;7.372;2022-07-29T06:27:57;9.37;;;6.83;;
47429;SDS011;33181;49.246;7.372;2022-07-29T06:30:22;7.67;;;6.63;;
47429;SDS011;33181;49.246;7.372;2022-07-29T06:32:48;9.77;;;6.70;;
47429;SDS011;33181;49.246;7.372;2022-07-29T06:35:14;7.10;;;6.40;;
47429;SDS011;33181;49.246;7.372;2022-07-29T06:37:40;6.93;;;5.87;;
47429;SDS011;33181;49.246;7.372;2022-07-29T06:40:06;9.30;;;6.30;;
47429;SDS011;33181;49.246;7.372;2022-07-29T06:42:50;8.00;;;6.83;;
47429;SDS011;33181;49.246;7.372;2022-07-29T06:45:16;8.90;;;6.17;;
47429;SDS011;33181;49.246;7.372;2022-07-29T06:47:42;7.60;;;6.00;;
47429;SDS011;33181;49.246;7.372;2022-07-29T06:50:08;7.00;;;6.17;;
47429;SDS011;33181;49.246;7.372;2022-07-29T06:52:37;7.47;;;6.50;;
47429;SDS011;33181;49.246;7.372;2022-07-29T06:55:03;7.60;;;6.23;;
47429;SDS011;33181;49.246;7.372;2022-07-29T06:57:30;12.97;;;6.27;;
47429;SDS011;33181;49.246;7.372;2022-07-29T06:59:56;11.43;;;5.53;;
47429;SDS011;33181;49.246;7.372;2022-07-29T07:02:22;6.97;;;5.60;;
47429;SDS011;33181;49.246;7.372;2022-07-29T07:04:47;7.00;;;5.57;;
47429;SDS011;33181;49.246;7.372;2022-07-29T07:07:13;18.20;;;6.90;;
47429;SDS011;33181;49.246;7.372;2022-07-29T07:09:58;6.53;;;5.90;;
47429;SDS011;33181;49.246;7.372;2022-07-29T07:12:24;8.30;;;6.00;;
47429;SDS011;33181;49.246;7.372;2022-07-29T07:15:04;8.23;;;6.13;;
47429;SDS011;33181;49.246;7.372;2022-07-29T07:17:31;8.07;;;6.10;;
47429;SDS011;33181;49.246;7.372;2022-07-29T07:19:57;9.10;;;5.90;;
47429;SDS011;33181;49.246;7.372;2022-07-29T07:22:23;6.30;;;5.27;;
47429;SDS011;33181;49.246;7.372;2022-07-29T07:24:48;10.40;;;5.17;;
47429;SDS011;33181;49.246;7.372;2022-07-29T07:27:15;5.80;;;5.10;;
47429;SDS011;33181;49.246;7.372;2022-07-29T07:29:41;4.87;;;4.20;;
47429;SDS011;33181;49.246;7.372;2022-07-29T07:32:07;5.57;;;4.87;;
47429;SDS011;33181;49.246;7.372;2022-07-29T07:34:38;5.57;;;4.80;;
47429;SDS011;33181;49.246;7.372;2022-07-29T07:37:03;7.30;;;4.60;;
47429;SDS011;33181;49.246;7.372;2022-07-29T07:39:30;5.73;;;4.67;;
47429;SDS011;33181;49.246;7.372;2022-07-29T07:41:56;6.17;;;4.73;;
47429;SDS011;33181;49.246;7.372;2022-07-29T07:44:22;7.30;;;4.57;;
47429;SDS011;33181;49.246;7.372;2022-07-29T07:46:48;6.17;;;4.37;;
47429;SDS011;33181;49.246;7.372;2022-07-29T07:49:23;6.57;;;4.80;;
47429;SDS011;33181;49.246;7.372;2022-07-29T07:51:49;8.63;;;5.40;;
47429;SDS011;33181;49.246;7.372;2022-07-29T07:54:14;5.53;;;4.90;;
47429;SDS011;33181;49.246;7.372;2022-07-29T07:56:40;8.17;;;4.87;;
47429;SDS011;33181;49.246;7.372;2022-07-29T07:59:06;5.57;;;4.53;;
47429;SDS011;33181;49.246;7.372;2022-07-29T08:01:31;6.73;;;4.43;;
47429;SDS011;33181;49.246;7.372;2022-07-29T08:03:57;7.53;;;4.80;;
47429;SDS011;33181;49.246;7.372;2022-07-29T08:06:23;5.47;;;4.63;;
47429;SDS011;33181;49.246;7.372;2022-07-29T08:08:50;9.23;;;4.87;;
47429;SDS011;33181;49.246;7.372;2022-07-29T08:11:16;7.30;;;4.90;;
47429;SDS011;33181;49.246;7.372;2022-07-29T08:13:42;10.00;;;5.20;;
47429;SDS011;33181;49.246;7.372;2022-07-29T08:16:08;7.20;;;4.40;;
47429;SDS011;33181;49.246;7.372;2022-07-29T08:18:37;7.50;;;4.37;;
47429;SDS011;33181;49.246;7.372;2022-07-29T08:21:05;5.33;;;4.33;;
47429;SDS011;33181;49.246;7.372;2022-07-29T08:23:31;7.07;;;4.80;;
47429;SDS011;33181;49.246;7.372;2022-07-29T08:26:07;11.60;;;4.87;;
47429;SDS011;33181;49.246;7.372;2022-07-29T08:28:36;6.00;;;4.80;;
47429;SDS011;33181;49.246;7.372;2022-07-29T08:31:03;4.40;;;4.00;;
47429;SDS011;33181;49.246;7.372;2022-07-29T08:33:29;6.13;;;5.10;;
47429;SDS011;33181;49.246;7.372;2022-07-29T08:35:55;6.87;;;5.00;;
47429;SDS011;33181;49.246;7.372;2022-07-29T08:38:20;6.30;;;4.83;;
47429;SDS011;33181;49.246;7.372;2022-07-29T08:40:46;10.87;;;4.87;;
47429;SDS011;33181;49.246;7.372;2022-07-29T08:43:12;10.20;;;4.77;;
47429;SDS011;33181;49.246;7.372;2022-07-29T08:45:48;6.10;;;4.13;;
47429;SDS011;33181;49.246;7.372;2022-07-29T08:48:16;7.13;;;4.80;;
47429;SDS011;33181;49.246;7.372;2022-07-29T08:50:47;7.60;;;5.17;;
47429;SDS011;33181;49.246;7.372;2022-07-29T08:53:20;5.17;;;4.67;;
47429;SDS011;33181;49.246;7.372;2022-07-29T08:55:49;6.97;;;4.47;;
47429;SDS011;33181;49.246;7.372;2022-07-29T08:58:16;7.43;;;4.80;;
47429;SDS011;33181;49.246;7.372;2022-07-29T09:00:50;6.37;;;4.93;;
47429;SDS011;33181;49.246;7.372;2022-07-29T09:03:20;8.07;;;5.03;;
47429;SDS011;33181;49.246;7.372;2022-07-29T09:05:49;6.23;;;4.80;;
47429;SDS011;33181;49.246;7.372;2022-07-29T09:08:16;6.43;;;4.87;;
47429;SDS011;33181;49.246;7.372;2022-07-29T09:10:43;8.93;;;4.87;;
47429;SDS011;33181;49.246;7.372;2022-07-29T09:13:09;7.77;;;5.03;;
47429;SDS011;33181;49.246;7.372;2022-07-29T09:15:36;5.20;;;4.27;;
47429;SDS011;33181;49.246;7.372;2022-07-29T09:18:01;7.13;;;4.83;;
47429;SDS011;33181;49.246;7.372;2022-07-29T09:20:27;4.70;;;4.23;;
47429;SDS011;33181;49.246;7.372;2022-07-29T09:23:12;5.80;;;4.90;;
47429;SDS011;33181;49.246;7.372;2022-07-29T09:25:41;5.70;;;4.60;;
47429;SDS011;33181;49.246;7.372;2022-07-29T09:28:07;5.87;;;4.53;;
47429;SDS011;33181;49.246;7.372;2022-07-29T09:30:36;7.87;;;4.53;;
47429;SDS011;33181;49.246;7.372;2022-07-29T09:33:23;6.03;;;4.43;;
47429;SDS011;33181;49.246;7.372;2022-07-29T09:36:00;6.00;;;4.70;;
47429;SDS011;33181;49.246;7.372;2022-07-29T09:38:33;7.20;;;4.40;;
47429;SDS011;33181;49.246;7.372;2022-07-29T09:41:02;5.80;;;4.30;;
47429;SDS011;33181;49.246;7.372;2022-07-29T09:43:29;8.97;;;4.20;;
47429;SDS011;33181;49.246;7.372;2022-07-29T09:45:55;8.83;;;4.50;;
47429;SDS011;33181;49.246;7.372;2022-07-29T09:48:34;4.60;;;3.90;;
47429;SDS011;33181;49.246;7.372;2022-07-29T09:51:00;8.90;;;4.50;;
47429;SDS011;33181;49.246;7.372;2022-07-29T09:53:33;6.60;;;4.10;;
47429;SDS011;33181;49.246;7.372;2022-07-29T09:56:01;6.17;;;4.03;;
47429;SDS011;33181;49.246;7.372;2022-07-29T09:58:28;3.73;;;3.40;;
47429;SDS011;33181;49.246;7.372;2022-07-29T10:00:54;12.77;;;3.70;;
47429;SDS011;33181;49.246;7.372;2022-07-29T10:03:21;8.83;;;3.90;;
47429;SDS011;33181;49.246;7.372;2022-07-29T10:06:03;7.37;;;3.93;;
47429;SDS011;33181;49.246;7.372;2022-07-29T10:08:30;7.93;;;3.60;;
47429;SDS011;33181;49.246;7.372;2022-07-29T10:11:08;7.27;;;3.57;;
47429;SDS011;33181;49.246;7.372;2022-07-29T10:13:42;4.60;;;3.90;;
47429;SDS011;33181;49.246;7.372;2022-07-29T10:16:10;7.60;;;3.97;;
47429;SDS011;33181;49.246;7.372;2022-07-29T10:18:37;4.80;;;4.03;;
47429;SDS011;33181;49.246;7.372;2022-07-29T10:21:04;5.23;;;4.30;;
47429;SDS011;33181;49.246;7.372;2022-07-29T10:23:32;5.70;;;4.40;;
47429;SDS011;33181;49.246;7.372;2022-07-29T10:26:00;7.27;;;4.27;;
47429;SDS011;33181;49.246;7.372;2022-07-29T10:28:28;9.03;;;3.90;;
47429;SDS011;33181;49.246;7.372;2022-07-29T10:31:07;7.37;;;3.90;;
47429;SDS011;33181;49.246;7.372;2022-07-29T10:34:01;5.00;;;4.10;;
47429;SDS011;33181;49.246;7.372;2022-07-29T10:36:53;4.83;;;3.97;;
47429;SDS011;33181;49.246;7.372;2022-07-29T10:43:16;6.00;;;3.90;;
47429;SDS011;33181;49.246;7.372;2022-07-29T10:45:48;5.20;;;3.90;;
47429;SDS011;33181;49.246;7.372;2022-07-29T10:48:19;7.47;;;4.10;;
47429;SDS011;33181;49.246;7.372;2022-07-29T10:50:52;7.63;;;3.80;;
47429;SDS011;33181;49.246;7.372;2022-07-29T10:53:47;5.70;;;3.73;;
47429;SDS011;33181;49.246;7.372;2022-07-29T10:56:23;8.47;;;4.07;;
47429;SDS011;33181;49.246;7.372;2022-07-29T10:59:36;7.13;;;4.37;;
47429;SDS011;33181;49.246;7.372;2022-07-29T11:01:43;4.47;;;4.00;;
47429;SDS011;33181;49.246;7.372;2022-07-29T11:04:09;4.70;;;3.70;;
47429;SDS011;33181;49.246;7.372;2022-07-29T11:09:25;4.70;;;3.93;;
47429;SDS011;33181;49.246;7.372;2022-07-29T11:11:52;4.33;;;3.93;;
47429;SDS011;33181;49.246;7.372;2022-07-29T11:14:18;7.90;;;4.30;;
47429;SDS011;33181;49.246;7.372;2022-07-29T11:17:13;5.80;;;4.10;;
47429;SDS011;33181;49.246;7.372;2022-07-29T11:19:38;7.90;;;3.57;;
47429;SDS011;33181;49.246;7.372;2022-07-29T11:22:07;6.00;;;3.70;;
47429;SDS011;33181;49.246;7.372;2022-07-29T11:24:34;6.60;;;4.13;;
47429;SDS011;33181;49.246;7.372;2022-07-29T11:27:14;6.43;;;4.00;;
47429;SDS011;33181;49.246;7.372;2022-07-29T11:32:16;4.00;;;3.40;;
47429;SDS011;33181;49.246;7.372;2022-07-29T11:34:44;4.23;;;3.50;;
47429;SDS011;33181;49.246;7.372;2022-07-29T11:37:16;4.37;;;3.00;;
47429;SDS011;33181;49.246;7.372;2022-07-29T11:39:45;7.37;;;3.30;;
47429;SDS011;33181;49.246;7.372;2022-07-29T11:47:49;5.53;;;3.50;;
47429;SDS011;33181;49.246;7.372;2022-07-29T11:50:28;8.20;;;3.37;;
47429;SDS011;33181;49.246;7.372;2022-07-29T11:53:00;4.23;;;3.13;;
47429;SDS011;33181;49.246;7.372;2022-07-29T11:55:36;5.40;;;3.50;;
47429;SDS011;33181;49.246;7.372;2022-07-29T11:58:04;7.47;;;3.00;;
47429;SDS011;33181;49.246;7.372;2022-07-29T12:00:32;8.90;;;3.13;;
47429;SDS011;33181;49.246;7.372;2022-07-29T12:03:03;3.60;;;2.80;;
47429;SDS011;33181;49.246;7.372;2022-07-29T12:05:33;5.10;;;3.00;;
47429;SDS011;33181;49.246;7.372;2022-07-29T12:08:05;4.60;;;3.00;;
47429;SDS011;33181;49.246;7.372;2022-07-29T12:10:33;4.53;;;2.93;;
47429;SDS011;33181;49.246;7.372;2022-07-29T12:12:59;3.67;;;2.73;;
47429;SDS011;33181;49.246;7.372;2022-07-29T12:15:25;5.73;;;3.00;;
47429;SDS011;33181;49.246;7.372;2022-07-29T12:17:51;3.70;;;2.70;;
47429;SDS011;33181;49.246;7.372;2022-07-29T12:20:27;5.63;;;2.80;;
47429;SDS011;33181;49.246;7.372;2022-07-29T12:22:55;3.50;;;2.80;;
47429;SDS011;33181;49.246;7.372;2022-07-29T12:25:22;8.37;;;2.90;;
47429;SDS011;33181;49.246;7.372;2022-07-29T12:28:02;3.90;;;2.90;;
47429;SDS011;33181;49.246;7.372;2022-07-29T12:30:38;3.33;;;2.53;;
47429;SDS011;33181;49.246;7.372;2022-07-29T12:33:18;3.80;;;2.40;;
47429;SDS011;33181;49.246;7.372;2022-07-29T12:35:48;9.07;;;2.83;;
47429;SDS011;33181;49.246;7.372;2022-07-29T12:38:17;3.80;;;2.80;;
47429;SDS011;33181;49.246;7.372;2022-07-29T12:40:44;3.00;;;2.53;;
47429;SDS011;33181;49.246;7.372;2022-07-29T12:43:13;5.47;;;2.93;;
47429;SDS011;33181;49.246;7.372;2022-07-29T12:45:46;3.50;;;3.00;;
47429;SDS011;33181;49.246;7.372;2022-07-29T12:48:15;5.40;;;3.10;;
47429;SDS011;33181;49.246;7.372;2022-07-29T12:50:53;4.43;;;2.80;;
47429;SDS011;33181;49.246;7.372;2022-07-29T12:53:21;5.10;;;2.87;;
47429;SDS011;33181;49.246;7.372;2022-07-29T12:55:49;4.00;;;3.17;;
47429;SDS011;33181;49.246;7.372;2022-07-29T13:01:06;6.83;;;2.70;;
47429;SDS011;33181;49.246;7.372;2022-07-29T13:03:43;5.40;;;3.00;;
47429;SDS011;33181;49.246;7.372;2022-07-29T13:09:10;3.63;;;2.70;;
47429;SDS011;33181;49.246;7.372;2022-07-29T13:11:40;3.73;;;2.90;;
47429;SDS011;33181;49.246;7.372;2022-07-29T13:14:13;4.50;;;3.43;;
47429;SDS011;33181;49.246;7.372;2022-07-29T13:22:14;8.10;;;2.97;;
47429;SDS011;33181;49.246;7.372;2022-07-29T13:27:20;4.07;;;3.00;;
47429;SDS011;33181;49.246;7.372;2022-07-29T13:29:49;5.73;;;3.33;;
47429;SDS011;33181;49.246;7.372;2022-07-29T13:32:17;3.10;;;2.80;;
47429;SDS011;33181;49.246;7.372;2022-07-29T13:34:47;7.33;;;3.30;;
47429;SDS011;33181;49.246;7.372;2022-07-29T13:37:13;3.60;;;2.70;;
47429;SDS011;33181;49.246;7.372;2022-07-29T13:39:39;5.30;;;2.83;;
47429;SDS011;33181;49.246;7.372;2022-07-29T13:42:06;7.40;;;3.30;;
47429;SDS011;33181;49.246;7.372;2022-07-29T13:44:32;6.30;;;3.43;;
47429;SDS011;33181;49.246;7.372;2022-07-29T13:46:58;4.70;;;3.10;;
47429;SDS011;33181;49.246;7.372;2022-07-29T13:49:24;8.40;;;3.20;;
47429;SDS011;33181;49.246;7.372;2022-07-29T13:51:51;6.13;;;3.50;;
47429;SDS011;33181;49.246;7.372;2022-07-29T13:54:17;3.67;;;3.03;;
47429;SDS011;33181;49.246;7.372;2022-07-29T13:56:43;9.63;;;3.30;;
47429;SDS011;33181;49.246;7.372;2022-07-29T13:59:09;4.97;;;3.27;;
47429;SDS011;33181;49.246;7.372;2022-07-29T14:01:35;4.90;;;3.10;;
47429;SDS011;33181;49.246;7.372;2022-07-29T14:04:01;5.73;;;3.40;;
47429;SDS011;33181;49.246;7.372;2022-07-29T14:06:27;11.23;;;2.80;;
47429;SDS011;33181;49.246;7.372;2022-07-29T14:08:53;4.33;;;3.30;;
47429;SDS011;33181;49.246;7.372;2022-07-29T14:11:19;4.70;;;3.20;;
47429;SDS011;33181;49.246;7.372;2022-07-29T14:13:44;3.93;;;2.90;;
47429;SDS011;33181;49.246;7.372;2022-07-29T14:16:10;5.70;;;3.17;;
47429;SDS011;33181;49.246;7.372;2022-07-29T14:18:36;4.60;;;3.03;;
47429;SDS011;33181;49.246;7.372;2022-07-29T14:21:02;4.50;;;3.20;;
47429;SDS011;33181;49.246;7.372;2022-07-29T14:23:28;4.50;;;3.20;;
47429;SDS011;33181;49.246;7.372;2022-07-29T14:25:54;3.30;;;2.93;;
47429;SDS011;33181;49.246;7.372;2022-07-29T14:28:19;4.93;;;2.93;;
47429;SDS011;33181;49.246;7.372;2022-07-29T14:30:45;5.40;;;3.20;;
47429;SDS011;33181;49.246;7.372;2022-07-29T14:33:11;6.67;;;2.90;;
47429;SDS011;33181;49.246;7.372;2022-07-29T14:35:37;7.70;;;3.30;;
47429;SDS011;33181;49.246;7.372;2022-07-29T14:38:03;5.60;;;3.20;;
47429;SDS011;33181;49.246;7.372;2022-07-29T14:40:28;5.13;;;3.03;;
47429;SDS011;33181;49.246;7.372;2022-07-29T14:42:54;3.60;;;3.30;;
47429;SDS011;33181;49.246;7.372;2022-07-29T14:45:20;5.33;;;3.13;;
47429;SDS011;33181;49.246;7.372;2022-07-29T14:47:46;3.87;;;3.10;;
47429;SDS011;33181;49.246;7.372;2022-07-29T14:50:11;8.50;;;3.20;;
47429;SDS011;33181;49.246;7.372;2022-07-29T14:52:38;4.00;;;3.07;;
47429;SDS011;33181;49.246;7.372;2022-07-29T14:55:04;8.07;;;3.37;;
47429;SDS011;33181;49.246;7.372;2022-07-29T14:57:30;8.83;;;3.10;;
47429;SDS011;33181;49.246;7.372;2022-07-29T14:59:56;4.93;;;3.40;;
47429;SDS011;33181;49.246;7.372;2022-07-29T15:02:22;5.20;;;3.60;;
47429;SDS011;33181;49.246;7.372;2022-07-29T15:04:48;5.03;;;3.50;;
47429;SDS011;33181;49.246;7.372;2022-07-29T15:07:14;5.40;;;3.53;;
47429;SDS011;33181;49.246;7.372;2022-07-29T15:09:40;6.87;;;3.47;;
47429;SDS011;33181;49.246;7.372;2022-07-29T15:12:07;5.10;;;3.70;;
47429;SDS011;33181;49.246;7.372;2022-07-29T15:14:35;6.63;;;3.50;;
47429;SDS011;33181;49.246;7.372;2022-07-29T15:17:01;4.87;;;3.33;;
47429;SDS011;33181;49.246;7.372;2022-07-29T15:19:27;6.57;;;3.60;;
47429;SDS011;33181;49.246;7.372;2022-07-29T15:21:53;7.33;;;3.73;;
47429;SDS011;33181;49.246;7.372;2022-07-29T15:24:19;5.80;;;3.90;;
47429;SDS011;33181;49.246;7.372;2022-07-29T15:26:45;3.87;;;3.53;;
47429;SDS011;33181;49.246;7.372;2022-07-29T15:29:12;4.80;;;3.70;;
47429;SDS011;33181;49.246;7.372;2022-07-29T15:31:38;8.30;;;3.87;;
47429;SDS011;33181;49.246;7.372;2022-07-29T15:34:04;3.90;;;3.50;;
47429;SDS011;33181;49.246;7.372;2022-07-29T15:36:30;8.07;;;3.67;;
47429;SDS011;33181;49.246;7.372;2022-07-29T15:38:56;5.80;;;3.77;;
47429;SDS011;33181;49.246;7.372;2022-07-29T15:41:22;5.90;;;3.80;;